createdAt,value
2024-04-15T00:01:35.016Z,13.60
2024-04-15T00:04:02.002Z,13.70
2024-04-15T00:06:31.502Z,13.80
2024-04-15T00:08:58.365Z,13.80
2024-04-15T00:11:25.341Z,13.60
2024-04-15T00:13:52.432Z,13.90
2024-04-15T00:16:19.411Z,13.60
2024-04-15T00:18:46.301Z,13.70
2024-04-15T00:21:13.412Z,13.80
2024-04-15T00:23:40.277Z,13.80
2024-04-15T00:26:07.262Z,13.70
2024-04-15T00:28:34.324Z,13.60
2024-04-15T00:31:02.476Z,13.60
2024-04-15T00:33:29.598Z,13.80
2024-04-15T00:35:56.749Z,13.70
2024-04-15T00:38:23.713Z,13.80
2024-04-15T00:40:50.837Z,13.70
2024-04-15T00:43:17.825Z,13.80
2024-04-15T00:45:44.822Z,13.60
2024-04-15T00:48:17.953Z,13.70
2024-04-15T00:50:49.838Z,13.60
2024-04-15T00:53:20.357Z,13.70
2024-04-15T00:55:49.721Z,13.70
2024-04-15T00:58:18.222Z,13.50
2024-04-15T01:00:45.801Z,13.50
2024-04-15T01:03:13.596Z,13.50
2024-04-15T01:05:40.597Z,13.60
2024-04-15T01:08:08.652Z,13.40
2024-04-15T01:10:46.376Z,13.50
2024-04-15T01:13:22.277Z,13.60
2024-04-15T01:15:58.861Z,13.60
2024-04-15T01:18:26.547Z,13.50
2024-04-15T01:20:56.944Z,13.50
2024-04-15T01:23:24.983Z,13.50
2024-04-15T01:25:52.072Z,13.70
2024-04-15T01:28:21.454Z,13.70
2024-04-15T01:30:48.696Z,13.70
2024-04-15T01:33:15.890Z,13.70
2024-04-15T01:35:42.828Z,13.80
2024-04-15T01:38:09.736Z,13.70
2024-04-15T01:40:36.645Z,13.60
2024-04-15T01:43:03.643Z,13.70
2024-04-15T01:45:31.199Z,13.50
2024-04-15T01:47:58.612Z,13.40
2024-04-15T01:50:25.554Z,13.60
2024-04-15T01:52:52.432Z,13.60
2024-04-15T01:55:19.356Z,13.50
2024-04-15T01:57:49.283Z,13.60
2024-04-15T02:00:16.320Z,13.50
2024-04-15T02:02:43.232Z,13.40
2024-04-15T02:05:10.522Z,13.40
2024-04-15T02:07:37.706Z,13.60
2024-04-15T02:10:05.176Z,13.70
2024-04-15T02:12:33.206Z,13.60
2024-04-15T02:15:00.156Z,13.60
2024-04-15T02:17:27.148Z,13.50
2024-04-15T02:19:54.301Z,13.30
2024-04-15T02:22:21.337Z,13.50
2024-04-15T02:24:48.357Z,13.30
2024-04-15T02:27:15.315Z,13.20
2024-04-15T02:29:42.271Z,13.20
2024-04-15T02:32:09.250Z,13.30
2024-04-15T02:34:36.273Z,13.30
2024-04-15T02:37:03.216Z,13.40
2024-04-15T02:39:30.142Z,13.40
2024-04-15T02:41:56.998Z,13.40
2024-04-15T02:44:23.882Z,13.30
2024-04-15T02:46:50.728Z,13.20
2024-04-15T02:49:17.625Z,13.30
2024-04-15T02:51:44.561Z,13.20
2024-04-15T02:54:11.508Z,13.20
2024-04-15T02:56:38.687Z,13.10
2024-04-15T02:59:05.607Z,13.10
2024-04-15T03:01:32.556Z,13.10
2024-04-15T03:04:00.010Z,13.00
2024-04-15T03:06:27.044Z,13.00
2024-04-15T03:08:53.947Z,12.90
2024-04-15T03:11:21.513Z,12.80
2024-04-15T03:13:48.558Z,12.80
2024-04-15T03:16:22.468Z,12.60
2024-04-15T03:18:52.896Z,12.60
2024-04-15T03:21:20.204Z,12.50
2024-04-15T03:23:47.301Z,12.50
2024-04-15T03:26:14.194Z,12.60
2024-04-15T03:28:41.020Z,12.70
2024-04-15T03:31:07.883Z,12.70
2024-04-15T03:33:35.761Z,12.70
2024-04-15T03:36:02.720Z,12.60
2024-04-15T03:38:29.591Z,12.70
2024-04-15T03:40:56.488Z,12.50
2024-04-15T03:43:26.723Z,12.50
2024-04-15T03:45:56.494Z,12.30
2024-04-15T03:48:23.407Z,12.40
2024-04-15T03:50:50.304Z,12.40
2024-04-15T03:53:17.157Z,12.40
2024-04-15T03:55:52.806Z,12.40
2024-04-15T03:58:19.699Z,12.20
2024-04-15T04:00:47.408Z,12.20
2024-04-15T04:03:16.231Z,12.10
2024-04-15T04:05:43.485Z,12.10
2024-04-15T04:08:11.168Z,12.10
2024-04-15T04:10:38.128Z,12.00
2024-04-15T04:13:05.061Z,12.10
2024-04-15T04:15:36.499Z,12.10
2024-04-15T04:18:04.078Z,12.00
2024-04-15T04:20:33.120Z,12.10
2024-04-15T04:23:00.434Z,12.00
2024-04-15T04:25:27.326Z,12.00
2024-04-15T04:27:55.534Z,12.00
2024-04-15T04:30:22.626Z,11.90
2024-04-15T04:32:49.634Z,11.80
2024-04-15T04:35:16.561Z,11.70
2024-04-15T04:37:43.416Z,11.80
2024-04-15T04:40:10.349Z,11.80
2024-04-15T04:42:37.244Z,11.90
2024-04-15T04:45:04.375Z,11.90
2024-04-15T04:47:32.639Z,11.80
2024-04-15T04:49:59.516Z,11.80
2024-04-15T04:52:26.842Z,11.80
2024-04-15T04:54:53.881Z,11.80
2024-04-15T04:57:20.760Z,11.80
2024-04-15T04:59:47.663Z,12.00
2024-04-15T05:02:14.968Z,12.00
2024-04-15T05:04:41.884Z,12.10
2024-04-15T05:07:08.808Z,12.10
2024-04-15T05:09:35.654Z,12.10
2024-04-15T05:12:03.010Z,12.20
2024-04-15T05:14:29.841Z,12.20
2024-04-15T05:16:56.683Z,12.30
2024-04-15T05:19:23.577Z,12.20
2024-04-15T05:21:50.670Z,12.10
2024-04-15T05:24:17.591Z,12.20
2024-04-15T05:26:44.643Z,12.20
2024-04-15T05:29:11.785Z,12.20
2024-04-15T05:31:38.603Z,12.20
2024-04-15T05:34:05.534Z,12.20
2024-04-15T05:36:32.999Z,12.30
2024-04-15T05:38:59.908Z,12.30
2024-04-15T05:41:26.830Z,12.40
2024-04-15T05:43:54.192Z,12.40
2024-04-15T05:46:21.106Z,12.60
2024-04-15T05:48:48.077Z,12.40
2024-04-15T05:51:18.109Z,12.50
2024-04-15T05:53:45.186Z,12.60
2024-04-15T05:56:12.060Z,12.60
2024-04-15T05:58:39.058Z,12.60
2024-04-15T06:01:06.000Z,12.60
2024-04-15T06:03:32.982Z,12.60
2024-04-15T06:05:59.887Z,12.60
2024-04-15T06:08:26.814Z,12.70
2024-04-15T06:10:53.716Z,12.80
2024-04-15T06:13:20.868Z,12.70
2024-04-15T06:15:49.096Z,12.70
2024-04-15T06:18:16.447Z,12.80
2024-04-15T06:20:43.823Z,12.70
2024-04-15T06:23:10.635Z,12.80
2024-04-15T06:25:37.499Z,12.80
2024-04-15T06:28:04.638Z,12.90
2024-04-15T06:30:31.537Z,12.80
2024-04-15T06:32:58.446Z,12.70
2024-04-15T06:35:25.582Z,12.90
2024-04-15T06:37:52.839Z,13.00
2024-04-15T06:40:19.759Z,12.90
2024-04-15T06:42:48.348Z,12.90
2024-04-15T06:45:15.453Z,12.90
2024-04-15T06:47:42.310Z,12.90
2024-04-15T06:50:09.264Z,12.90
2024-04-15T06:52:36.263Z,13.00
2024-04-15T06:55:03.284Z,12.80
2024-04-15T06:57:30.195Z,12.90
2024-04-15T06:59:57.156Z,12.80
2024-04-15T07:02:24.845Z,12.90
2024-04-15T07:04:55.327Z,12.90
2024-04-15T07:07:27.201Z,12.80
2024-04-15T07:09:57.513Z,12.80
2024-04-15T07:12:25.008Z,12.70
2024-04-15T07:14:52.842Z,12.80
2024-04-15T07:17:19.748Z,12.80
2024-04-15T07:19:46.574Z,12.80
2024-04-15T07:22:13.560Z,12.80
2024-04-15T07:24:40.501Z,12.80
2024-04-15T07:27:07.373Z,12.80
2024-04-15T07:29:34.237Z,12.80
2024-04-15T07:32:01.403Z,12.90
2024-04-15T07:34:28.590Z,12.80
2024-04-15T07:36:55.720Z,12.80
2024-04-15T07:39:22.923Z,12.80
2024-04-15T07:41:49.760Z,12.70
2024-04-15T07:44:16.680Z,12.70
2024-04-15T07:46:43.686Z,12.70
2024-04-15T07:49:11.329Z,12.60
2024-04-15T07:51:38.316Z,12.70
2024-04-15T07:54:05.255Z,12.60
2024-04-15T07:56:32.439Z,12.70
2024-04-15T07:58:59.283Z,12.60
2024-04-15T08:01:26.309Z,12.60
2024-04-15T08:03:53.354Z,12.80
2024-04-15T08:06:20.367Z,12.70
2024-04-15T08:08:47.261Z,12.80
2024-04-15T08:11:14.220Z,12.90
2024-04-15T08:13:41.157Z,12.70
2024-04-15T08:16:09.737Z,12.80
2024-04-15T08:18:37.526Z,12.80
2024-04-15T08:21:04.950Z,12.90
2024-04-15T08:23:31.832Z,12.90
2024-04-15T08:25:58.986Z,12.90
2024-04-15T08:28:26.662Z,12.80
2024-04-15T08:30:53.770Z,12.90
2024-04-15T08:33:20.783Z,13.00
2024-04-15T08:35:47.896Z,12.80
2024-04-15T08:38:14.751Z,12.70
2024-04-15T08:40:53.028Z,12.70
2024-04-15T08:43:23.301Z,12.60
2024-04-15T08:45:58.386Z,12.80
2024-04-15T08:48:27.422Z,13.00
2024-04-15T08:50:56.097Z,13.00
2024-04-15T08:53:23.646Z,13.10
2024-04-15T08:55:50.906Z,13.30
2024-04-15T08:58:17.932Z,13.40
2024-04-15T09:00:46.516Z,13.80
2024-04-15T09:03:14.528Z,14.00
2024-04-15T09:05:41.530Z,13.90
2024-04-15T09:08:09.664Z,13.60
2024-04-15T09:10:37.253Z,13.90
2024-04-15T09:13:04.378Z,14.20
2024-04-15T09:15:32.707Z,14.20
2024-04-15T09:17:59.630Z,14.40
2024-04-15T09:20:34.906Z,14.60
2024-04-15T09:23:11.811Z,14.60
2024-04-15T09:25:39.276Z,14.70
2024-04-15T09:28:06.364Z,14.40
2024-04-15T09:30:33.624Z,14.10
2024-04-15T09:33:01.599Z,13.90
2024-04-15T09:35:29.245Z,13.80
2024-04-15T09:37:56.654Z,13.80
2024-04-15T09:40:27.062Z,13.90
2024-04-15T09:42:55.077Z,14.10
2024-04-15T09:45:22.997Z,14.10
2024-04-15T09:47:52.164Z,14.20
2024-04-15T09:50:23.134Z,14.00
2024-04-15T09:52:57.861Z,14.10
2024-04-15T09:55:37.070Z,14.40
2024-04-15T09:58:05.262Z,14.80
2024-04-15T10:00:32.923Z,14.90
2024-04-15T10:03:10.310Z,14.80
2024-04-15T10:05:42.053Z,14.90
2024-04-15T10:08:09.909Z,14.90
2024-04-15T10:10:38.172Z,14.60
2024-04-15T10:13:06.391Z,14.70
2024-04-15T10:15:33.657Z,14.70
2024-04-15T10:18:03.716Z,14.90
2024-04-15T10:20:35.981Z,15.20
2024-04-15T10:23:08.633Z,15.20
2024-04-15T10:25:36.590Z,15.00
2024-04-15T10:28:06.301Z,15.20
2024-04-15T10:30:35.504Z,15.30
2024-04-15T10:33:14.541Z,15.40
2024-04-15T10:35:41.882Z,15.40
2024-04-15T10:38:10.280Z,15.30
2024-04-15T10:40:40.410Z,15.20
2024-04-15T10:43:07.811Z,15.30
2024-04-15T10:45:34.890Z,15.60
2024-04-15T10:48:01.967Z,16.00
2024-04-15T10:50:28.936Z,16.10
2024-04-15T10:52:55.829Z,16.30
2024-04-15T10:55:23.655Z,16.00
2024-04-15T10:57:51.408Z,15.90
2024-04-15T11:00:21.489Z,16.10
2024-04-15T11:02:53.225Z,16.10
2024-04-15T11:05:24.423Z,16.30
2024-04-15T11:07:52.817Z,16.40
2024-04-15T11:10:19.742Z,16.10
2024-04-15T11:12:51.339Z,15.90
2024-04-15T11:15:22.598Z,16.30
2024-04-15T11:17:50.451Z,16.60
2024-04-15T11:20:17.620Z,16.90
2024-04-15T11:22:46.663Z,16.60
2024-04-15T11:25:14.683Z,16.30
2024-04-15T11:27:45.869Z,16.10
2024-04-15T11:30:19.460Z,16.10
2024-04-15T11:32:51.942Z,16.20
2024-04-15T11:35:20.928Z,16.60
2024-04-15T11:37:54.737Z,16.90
2024-04-15T11:40:21.916Z,17.20
2024-04-15T11:42:49.214Z,17.50
2024-04-15T11:45:16.724Z,17.30
2024-04-15T11:47:43.703Z,17.50
2024-04-15T11:50:13.456Z,17.60
2024-04-15T11:52:40.387Z,17.60
2024-04-15T11:55:22.299Z,17.80
2024-04-15T11:57:50.136Z,17.40
2024-04-15T12:00:19.774Z,17.20
2024-04-15T12:02:48.817Z,17.00
2024-04-15T12:05:16.023Z,16.90
2024-04-15T12:07:43.705Z,16.80
2024-04-15T12:10:12.450Z,16.90
2024-04-15T12:12:40.012Z,16.90
2024-04-15T12:15:09.091Z,17.50
2024-04-15T12:17:36.603Z,17.90
2024-04-15T12:20:05.812Z,18.10
2024-04-15T12:22:32.993Z,17.80
2024-04-15T12:25:07.344Z,17.30
2024-04-15T12:27:40.594Z,17.20
2024-04-15T12:30:12.088Z,17.00
2024-04-15T12:32:42.938Z,17.20
2024-04-15T12:35:10.395Z,17.40
2024-04-15T12:37:38.032Z,17.40
2024-04-15T12:40:07.615Z,17.80
2024-04-15T12:42:35.466Z,17.80
2024-04-15T12:45:03.221Z,17.90
2024-04-15T12:47:31.868Z,17.90
2024-04-15T12:49:58.900Z,18.00
2024-04-15T12:52:25.898Z,18.20
2024-04-15T12:54:54.359Z,18.10
2024-04-15T12:57:21.450Z,17.80
2024-04-15T12:59:48.539Z,17.60
2024-04-15T13:02:15.759Z,17.50
2024-04-15T13:04:42.909Z,17.80
2024-04-15T13:07:10.746Z,17.70
2024-04-15T13:09:38.029Z,17.60
2024-04-15T13:12:05.311Z,17.80
2024-04-15T13:14:32.281Z,18.10
2024-04-15T13:16:59.215Z,18.40
2024-04-15T13:19:26.228Z,18.70
2024-04-15T13:21:53.208Z,18.50
2024-04-15T13:24:20.067Z,18.20
2024-04-15T13:26:46.944Z,18.10
2024-04-15T13:29:13.936Z,18.40
2024-04-15T13:31:40.994Z,18.50
2024-04-15T13:34:11.550Z,18.30
2024-04-15T13:36:38.863Z,18.20
2024-04-15T13:39:05.796Z,18.30
2024-04-15T13:41:32.701Z,18.30
2024-04-15T13:43:59.593Z,18.10
2024-04-15T13:46:26.682Z,18.40
2024-04-15T13:48:53.689Z,18.60
2024-04-15T13:51:20.612Z,18.70
2024-04-15T13:53:47.498Z,18.70
2024-04-15T13:56:14.452Z,18.80
2024-04-15T13:58:41.524Z,19.10
2024-04-15T14:01:08.487Z,19.40
2024-04-15T14:03:35.744Z,19.30
2024-04-15T14:06:03.358Z,19.40
2024-04-15T14:08:30.299Z,19.20
2024-04-15T14:10:57.947Z,19.10
2024-04-15T14:13:25.375Z,19.20
2024-04-15T14:15:52.373Z,18.90
2024-04-15T14:18:19.428Z,18.90
2024-04-15T14:20:46.432Z,18.80
2024-04-15T14:23:13.447Z,18.70
2024-04-15T14:25:42.335Z,18.60
2024-04-15T14:28:09.798Z,18.50
2024-04-15T14:30:39.722Z,18.50
2024-04-15T14:33:06.972Z,18.60
2024-04-15T14:35:34.007Z,18.50
2024-04-15T14:38:00.921Z,18.30
2024-04-15T14:42:54.922Z,18.30
2024-04-15T14:45:21.899Z,18.20
2024-04-15T14:47:50.060Z,18.40
2024-04-15T14:50:17.046Z,18.60
2024-04-15T14:52:43.958Z,18.60
2024-04-15T14:55:10.948Z,18.30
2024-04-15T14:57:38.139Z,18.20
2024-04-15T15:00:12.625Z,18.60
2024-04-15T15:02:40.100Z,18.90
2024-04-15T15:05:07.640Z,18.80
2024-04-15T15:07:34.997Z,18.60
2024-04-15T15:10:03.013Z,18.50
2024-04-15T15:12:29.906Z,18.40
2024-04-15T15:14:56.782Z,18.40
2024-04-15T15:17:23.773Z,18.40
2024-04-15T15:19:53.375Z,18.10
2024-04-15T15:22:20.837Z,18.00
2024-04-15T15:24:47.854Z,18.10
2024-04-15T15:27:14.822Z,17.80
2024-04-15T15:29:41.672Z,17.70
2024-04-15T15:32:08.877Z,17.80
2024-04-15T15:34:37.269Z,17.70
2024-04-15T15:37:04.488Z,17.60
2024-04-15T15:39:31.398Z,17.50
2024-04-15T15:41:58.804Z,17.50
2024-04-15T15:44:25.689Z,17.50
2024-04-15T15:46:52.576Z,17.40
2024-04-15T15:49:19.536Z,17.20
2024-04-15T15:51:46.443Z,17.20
2024-04-15T15:54:13.308Z,17.20
2024-04-15T15:56:40.584Z,17.00
2024-04-15T15:59:08.171Z,17.10
2024-04-15T16:01:37.422Z,17.00
2024-04-15T16:04:04.707Z,17.00
2024-04-15T16:06:31.943Z,17.00
2024-04-15T16:08:58.885Z,16.90
2024-04-15T16:11:31.797Z,16.80
2024-04-15T16:14:07.698Z,16.80
2024-04-15T16:16:35.358Z,16.70
2024-04-15T16:19:02.447Z,16.70
2024-04-15T16:21:32.114Z,16.70
2024-04-15T16:23:58.982Z,16.70
2024-04-15T16:26:25.987Z,16.50
2024-04-15T16:28:52.894Z,16.50
2024-04-15T16:31:19.865Z,16.50
2024-04-15T16:33:46.872Z,16.40
2024-04-15T16:36:15.655Z,16.50
2024-04-15T16:38:43.447Z,16.50
2024-04-15T16:41:10.308Z,16.50
2024-04-15T16:43:37.223Z,16.50
2024-04-15T16:46:04.367Z,16.50
2024-04-15T16:48:31.372Z,16.40
2024-04-15T16:50:59.076Z,16.50
2024-04-15T16:53:26.489Z,16.50
2024-04-15T16:55:53.614Z,16.40
2024-04-15T16:58:22.455Z,16.40
2024-04-15T17:00:50.732Z,16.20
2024-04-15T17:03:17.802Z,16.10
2024-04-15T17:05:45.736Z,16.20
2024-04-15T17:08:12.781Z,16.10
2024-04-15T17:10:39.666Z,16.00
2024-04-15T17:13:07.051Z,15.90
2024-04-15T17:15:34.110Z,16.00
2024-04-15T17:18:01.887Z,16.00
2024-04-15T17:20:29.330Z,15.90
2024-04-15T17:22:57.113Z,15.80
2024-04-15T17:25:24.097Z,15.70
2024-04-15T17:27:51.325Z,15.60
2024-04-15T17:30:19.698Z,15.50
2024-04-15T17:32:46.735Z,15.50
2024-04-15T17:35:13.908Z,15.40
2024-04-15T17:37:42.101Z,15.40
2024-04-15T17:40:10.113Z,15.30
2024-04-15T17:42:37.063Z,15.30
2024-04-15T17:45:04.417Z,15.30
2024-04-15T17:47:31.349Z,15.30
2024-04-15T17:49:58.615Z,15.30
2024-04-15T17:52:25.722Z,15.30
2024-04-15T17:54:52.770Z,15.30
2024-04-15T17:57:20.314Z,15.20
2024-04-15T17:59:47.180Z,15.20
2024-04-15T18:02:14.226Z,15.10
2024-04-15T18:04:41.186Z,15.00
2024-04-15T18:07:11.141Z,15.00
2024-04-15T18:09:39.408Z,15.00
2024-04-15T18:12:08.592Z,14.80
2024-04-15T18:14:35.954Z,14.40
2024-04-15T18:17:03.614Z,14.00
2024-04-15T18:19:30.693Z,13.50
2024-04-15T18:21:57.695Z,12.60
2024-04-15T18:24:28.472Z,12.30
2024-04-15T18:26:55.788Z,11.80
2024-04-15T18:29:22.644Z,11.60
2024-04-15T18:31:49.661Z,11.40
2024-04-15T18:34:16.615Z,11.50
2024-04-15T18:36:45.510Z,11.30
2024-04-15T18:39:13.467Z,10.90
2024-04-15T18:41:40.786Z,11.00
2024-04-15T18:44:07.719Z,11.00
2024-04-15T18:46:35.195Z,10.70
2024-04-15T18:49:02.434Z,10.70
2024-04-15T18:51:29.530Z,10.50
2024-04-15T18:53:59.332Z,10.50
2024-04-15T18:56:26.369Z,10.10
2024-04-15T18:58:53.204Z,10.30
2024-04-15T19:01:20.133Z,10.10
2024-04-15T19:03:47.197Z,9.90
2024-04-15T19:06:14.290Z,9.90
2024-04-15T19:08:41.160Z,9.70
2024-04-15T19:11:08.473Z,9.50
2024-04-15T19:13:35.426Z,9.50
2024-04-15T19:16:03.271Z,9.40
2024-04-15T19:18:30.697Z,9.30
2024-04-15T19:20:57.555Z,9.00
2024-04-15T19:23:24.406Z,9.00
2024-04-15T19:25:51.926Z,9.00
2024-04-15T19:28:18.868Z,9.10
2024-04-15T19:30:45.801Z,8.90
2024-04-15T19:33:12.719Z,9.00
2024-04-15T19:35:39.809Z,8.60
2024-04-15T19:38:08.439Z,8.50
2024-04-15T19:40:35.708Z,8.50
2024-04-15T19:43:05.264Z,8.50
2024-04-15T19:45:32.932Z,8.30
2024-04-15T19:48:00.669Z,8.40
2024-04-15T19:50:27.644Z,8.40
2024-04-15T19:52:54.496Z,8.40
2024-04-15T19:55:21.390Z,8.50
2024-04-15T19:57:49.432Z,8.30
2024-04-15T20:00:17.038Z,7.80
2024-04-15T20:02:44.568Z,8.00
2024-04-15T20:05:11.773Z,8.00
2024-04-15T20:07:40.981Z,7.90
2024-04-15T20:10:10.928Z,7.90
2024-04-15T20:12:38.163Z,8.10
2024-04-15T20:15:05.626Z,8.20
2024-04-15T20:17:44.429Z,8.30
2024-04-15T20:20:16.300Z,8.00
2024-04-15T20:22:44.170Z,8.10
2024-04-15T20:25:11.900Z,7.90
2024-04-15T20:27:38.977Z,8.00
2024-04-15T20:30:06.387Z,8.30
2024-04-15T20:32:33.449Z,8.20
2024-04-15T20:35:01.583Z,7.80
2024-04-15T20:37:28.915Z,7.80
2024-04-15T20:39:56.445Z,7.90
2024-04-15T20:42:23.659Z,7.90
2024-04-15T20:44:52.958Z,7.60
2024-04-15T20:47:21.313Z,7.70
2024-04-15T20:49:48.309Z,7.70
2024-04-15T20:52:17.435Z,7.80
2024-04-15T20:54:44.611Z,7.80
2024-04-15T20:57:11.954Z,7.70
2024-04-15T20:59:38.989Z,7.80
2024-04-15T21:02:06.817Z,7.80
2024-04-15T21:04:34.259Z,7.80
2024-04-15T21:07:01.197Z,7.70
2024-04-15T21:09:28.122Z,7.70
2024-04-15T21:11:55.697Z,7.70
2024-04-15T21:14:22.716Z,7.60
2024-04-15T21:16:49.751Z,7.70
2024-04-15T21:19:16.687Z,7.70
2024-04-15T21:21:43.575Z,7.80
2024-04-15T21:24:11.915Z,7.70
2024-04-15T21:26:39.650Z,7.60
2024-04-15T21:29:06.660Z,7.60
2024-04-15T21:31:33.694Z,7.60
2024-04-15T21:34:02.587Z,7.80
2024-04-15T21:36:29.508Z,7.80
2024-04-15T21:38:56.461Z,7.70
2024-04-15T21:41:23.999Z,7.70
2024-04-15T21:43:51.376Z,7.60
2024-04-15T21:46:18.646Z,7.60
2024-04-15T21:48:45.623Z,7.60
2024-04-15T21:51:15.222Z,7.70
2024-04-15T21:53:42.499Z,7.80
2024-04-15T21:56:12.420Z,7.90
2024-04-15T21:58:41.152Z,7.90
2024-04-15T22:01:08.440Z,7.90
2024-04-15T22:03:36.169Z,7.90
2024-04-15T22:06:04.634Z,7.90
2024-04-15T22:08:31.640Z,8.00
2024-04-15T22:10:58.747Z,8.00
2024-04-15T22:13:28.294Z,7.70
2024-04-15T22:15:55.940Z,7.60
2024-04-15T22:18:22.891Z,7.60
2024-04-15T22:20:49.913Z,7.50
2024-04-15T22:23:16.807Z,7.60
2024-04-15T22:25:43.708Z,7.60
2024-04-15T22:28:10.844Z,7.50
2024-04-15T22:30:37.754Z,7.50
2024-04-15T22:33:04.999Z,7.40
2024-04-15T22:35:31.908Z,7.40
2024-04-15T22:37:58.801Z,7.40
2024-04-15T22:40:26.409Z,7.40
2024-04-15T22:42:53.615Z,7.50
2024-04-15T22:45:20.780Z,7.40
2024-04-15T22:47:47.687Z,7.40
2024-04-15T22:50:15.680Z,7.30
2024-04-15T22:52:42.566Z,7.40
2024-04-15T22:55:09.410Z,7.20
2024-04-15T22:57:36.239Z,7.20
2024-04-15T23:00:03.478Z,7.30
2024-04-15T23:02:30.384Z,7.40
2024-04-15T23:04:57.316Z,7.40
2024-04-15T23:07:24.239Z,7.50
2024-04-15T23:09:51.382Z,7.60
2024-04-15T23:12:18.233Z,7.50
2024-04-15T23:14:45.068Z,7.50
2024-04-15T23:17:11.981Z,7.20
2024-04-15T23:19:40.100Z,7.40
2024-04-15T23:22:07.716Z,7.30
2024-04-15T23:24:34.609Z,7.50
2024-04-15T23:27:01.528Z,7.60
2024-04-15T23:29:28.416Z,7.40
2024-04-15T23:31:55.316Z,7.40
2024-04-15T23:34:35.706Z,7.60
2024-04-15T23:37:02.719Z,7.60
2024-04-15T23:39:29.597Z,7.20
2024-04-15T23:41:56.459Z,7.40
2024-04-15T23:44:23.310Z,7.50
2024-04-15T23:47:08.790Z,7.40
2024-04-15T23:49:54.706Z,7.70
2024-04-15T23:52:40.189Z,7.70
2024-04-15T23:55:25.808Z,7.60
2024-04-15T23:57:59.462Z,7.50
